BKDO2: Broken Bow Lake

Data processed at Fri Mar 09 2018 23:10


All information presented herein is the property of the government of the United States of America and may be revised or deleted at any time without prior notice.
Dissemination of this information without the expressed written consent of the Public Affairs Office, Tulsa District U.S. Army Corps of Engineers is strictly prohibited.
These data are gathered electronically and, as presented, have not undergone any form of quality control. These data are not guaranteed to be valid or correct.
Go to home page.
Go to station list.

Upstream stations:

Downstream station:
Previous Day
Next Day
Current Day
    
SHEF ID:       BKDO2     Broken Bow Lake
STATION TYPE:  RESERVOIR
Normal Pool:  Bottom =   559.00, Top =   599.50

               PRECIP ELEVATION   STORAGE   TW-ELEV    INFLOW   RELEASE  AIR-TEMP  WIND-DIRWIND-SPEED REL-HUMID SOLAR-RAD   VOLTAGE  BAT-LOAD
                   in        ft     ac-ft        ft       cfs       cfs         F       deg       mph         %      W/m2      volt      volt
              Ccp-Rev   Ccp-Rev   Ccp-Rev   Ccp-Rev  Regi-Rev  Regi-Rev   Ccp-Rev   Ccp-Rev   Ccp-Rev   Ccp-Rev   Ccp-Rev   Ccp-Rev   Ccp-Rev
(US/Central)
03/07 00:00      0.00    621.24   1243208    403.30       573      4081     42.30    324.90     14.69     42.55      0.00     13.07     12.71
03/07 01:00      0.00    621.22   1242874    403.86         1      3448     41.09    326.00     12.47     47.86      0.00     13.06     12.71
03/07 02:00      0.00    621.20   1242540    403.81       733      3448     39.22    324.00     12.02     48.35      0.00     13.04     12.71
03/07 03:00      0.00    621.18   1242206    404.43       733      4047     38.03    318.00      9.95     49.27      0.00     13.02     12.71
03/07 04:00      0.00    621.17   1242039    404.95       733      6487     37.24    321.40      9.34     55.30      0.00     12.99     12.65
03/07 05:00      0.00    621.14   1241538    404.80       733      6541     36.48    322.50      9.15     58.85      0.00     12.99     12.65
03/07 06:00      0.00    621.10   1240870    404.91       732      6486     33.30    306.70      0.77     65.51      0.00     12.96     12.65
03/07 07:00      0.00    621.07   1240369    404.94        84      6541     31.75    314.20      0.15     68.25      7.00     12.94     12.60
03/07 08:00      0.00    621.04   1239868    404.92       179      6485     34.95    314.60      4.72     62.09     30.00     12.95     12.60
03/07 09:00      0.00    621.01   1239367    404.84       283      6485     36.48    323.00      6.63     56.65    389.00     12.96     12.60
03/07 10:00      0.00    620.98   1238870    405.01       388      6485     39.00    322.00      6.89     51.58    575.00     13.10     12.60
03/07 11:00      0.00    620.96   1238540    404.77       487      6540     41.09    323.40      6.17     53.42    665.00     13.62     12.65
03/07 12:00      0.00    620.92   1237880    404.91       901      6485     43.95    315.90      7.09     43.77    628.00     13.73     13.18
03/07 13:00      0.00    620.89   1237385    404.84       927      6485     45.93    319.50      7.52     39.37    786.00     14.14     13.53
03/07 14:00      0.00    620.87   1237055    404.96       922      6484     49.33    313.80      6.53     36.50    731.00     13.67     13.30
03/07 15:00      0.00    620.84   1236560    404.98       916      6594     50.99    316.70      7.49     33.58    616.00     13.71     13.36
03/07 16:00      0.00    620.81   1236065    404.78      1296      6484     51.87    315.10      4.92     33.58    425.00     14.24     13.36
03/07 17:00      0.00    620.78   1235570    405.02       797      6484     51.76    318.40      6.45     28.39    161.00     13.44     13.42
03/07 18:00      0.00    620.76   1235240    404.83       688      6539     50.22    315.60      6.72     33.57     23.00     13.22     13.00
03/07 19:00      0.00    620.72   1234580    404.91       600      6484     48.56    312.80      6.00     34.73      0.00     13.16     12.83
03/07 20:00      0.00    620.70   1234250    404.92       513      6539     46.80    312.70      4.93     44.81      0.00     13.12     12.77
03/07 21:00      0.00    620.66   1233590    405.00       129      6484     46.26    323.00      5.18     45.17      1.00     13.09     12.71
03/07 22:00      0.00    620.64   1233260    404.26       224      6462     44.94    317.90      4.07     49.51      0.00     13.08     12.71
03/07 23:00      0.00    620.62   1232930    403.78       503      3444     37.13    156.60      0.96     73.13      0.00     13.06     12.65